Celebrity Century — 9HJI9 — position and weather

sailwx.info

Track history (hours):
 
Tides and Currents Weather Stations Pressure Air Temp Water Temp Dewpoint Dewpoint Depression Visibility Wind Speed Wind Dir Waves Ship Positions

Celebrity Century

Last reported at 2017-Jul-21 16:14 UTC. Time now 2017-Jul-22 16:56 UTC.
Position N 31°15' E 123°13'.

Length 252 m; draft 8 m.

Type: Passenger vessel. MMSI: 249054000.

Date/timePositionNaut miles runAvg speedWind from/ knotsBaromVisibWave heightAir tempDewpointWater temp
2017-Jul-21 16:14N 31°15' E 123°13'312.9
2017-Jul-21 15:59N 31°14' E 123°10'712.9
2017-Jul-21 15:28N 31°11' E 123°02'613.0
2017-Jul-21 15:00N 31°08' E 122°56'713.0
2017-Jul-21 14:30N 31°07' E 122°49'713.2
2017-Jul-21 14:00N 31°06' E 122°41'611.7
2017-Jul-21 13:31N 31°06' E 122°34'612.0
2017-Jul-21 13:01N 31°06' E 122°27'5 9.7
2017-Jul-21 12:30N 31°06' E 122°22'4 8.6
2017-Jul-21 12:00N 31°07' E 122°17'4 7.9
2017-Jul-21 11:30N 31°09' E 122°13'4 8.3
2017-Jul-21 11:00N 31°12' E 122°09'611.5
2017-Jul-21 10:30N 31°14' E 122°03'713.6
2017-Jul-21 10:01N 31°15' E 121°55'714.5
2017-Jul-21 09:30N 31°18' E 121°47'612.5
2017-Jul-21 09:00N 31°20' E 121°41'611.9
2017-Jul-21 08:30N 31°23' E 121°35'4 7.7
2017-Jul-21 08:01N 31°25' E 121°30'0 0.0
2017-Jul-21 07:28N 31°25' E 121°30'0 0.0
2017-Jul-21 06:58N 31°25' E 121°30'0 0.0
2017-Jul-21 06:31N 31°25' E 121°30'0 0.0
2017-Jul-21 05:58N 31°25' E 121°30'0 0.0
2017-Jul-21 05:31N 31°25' E 121°30'0 0.0
2017-Jul-21 05:01N 31°25' E 121°30'0 0.0
2017-Jul-21 04:31N 31°25' E 121°30'0 0.0
2017-Jul-21 03:58N 31°25' E 121°30'0 0.0
2017-Jul-21 03:31N 31°25' E 121°30'0 0.0
2017-Jul-21 03:00N 31°25' E 121°30'0 0.0
2017-Jul-21 02:31N 31°25' E 121°30'0 0.0
2017-Jul-21 01:58N 31°25' E 121°30'0 0.0
2017-Jul-21 01:31N 31°25' E 121°30'0 0.0
2017-Jul-21 01:01N 31°25' E 121°30'0 0.0
2017-Jul-21 00:31N 31°25' E 121°30'0 0.0
2017-Jul-21 00:01N 31°25' E 121°30'0 0.0
2017-Jul-20 23:28N 31°25' E 121°30'0 0.0
2017-Jul-20 23:01N 31°25' E 121°30'0 0.0
2017-Jul-20 22:28N 31°25' E 121°30'0 0.0
2017-Jul-20 22:01N 31°25' E 121°30'0 0.0
2017-Jul-20 21:31N 31°25' E 121°30'0 0.0
2017-Jul-20 20:55N 31°25' E 121°30'0 0.0
2017-Jul-20 20:31N 31°25' E 121°30'0 0.0
2017-Jul-20 20:01N 31°25' E 121°30'1 2.5
2017-Jul-20 19:30N 31°24' E 121°32'510.6
2017-Jul-20 19:01N 31°22' E 121°37'611.0
2017-Jul-20 18:30N 31°19' E 121°43'4 8.9
2017-Jul-20 18:00N 31°18' E 121°48'4 7.5
2017-Jul-20 17:31N 31°16' E 121°52'4 7.5
2017-Jul-20 17:01N 31°15' E 121°56'4 8.6
2017-Jul-20 16:31N 31°15' E 122°01'4 8.4
2017-Jul-20 16:01N 31°14' E 122°06'612.2
2017-Jul-20 15:30N 31°10' E 122°12'612.9
2017-Jul-20 15:01N 31°07' E 122°18'1111.2
2017-Jul-20 14:00N 31°08' E 122°31'714.0
2017-Jul-20 13:31N 31°07' E 122°39'917.7
2017-Jul-20 13:00N 31°07' E 122°49'918.9
2017-Jul-20 12:30N 31°07' E 123°00'1019.2
2017-Jul-20 12:00N 31°04' E 123°11'1019.6
2017-Jul-20 11:29N 30°58' E 123°21'919.6
2017-Jul-20 11:00N 30°51' E 123°28'1019.7
2017-Jul-20 10:30N 30°44' E 123°36'1019.6
2017-Jul-20 10:00N 30°36' E 123°43'1019.0
2017-Jul-20 09:30N 30°28' E 123°50'918.6
2017-Jul-20 09:00N 30°21' E 123°57'918.3
2017-Jul-20 08:30N 30°14' E 124°04'918.3
2017-Jul-20 07:59N 30°07' E 124°11'918.4
2017-Jul-20 07:30N 30°01' E 124°17'918.2
2017-Jul-20 07:00N 29°54' E 124°24'  
2017-Jul-17 11:07N 24°15' E 118°32'617.6
2017-Jul-17 10:46N 24°14' E 118°25'416.3
2017-Jul-17 10:31N 24°13' E 118°21'612.8
2017-Jul-17 10:00N 24°16' E 118°14'714.1
2017-Jul-17 09:30N 24°21' E 118°09'510.9
2017-Jul-17 09:00N 24°25' E 118°05'4 8.4
2017-Jul-17 08:30N 24°29' E 118°04'1 0.5
2017-Jul-17 07:28N 24°29' E 118°04'0 0.0
2017-Jul-17 06:58N 24°29' E 118°04'0 0.0
2017-Jul-17 06:28N 24°29' E 118°04'0 0.0
2017-Jul-17 05:58N 24°29' E 118°04'0 0.0
2017-Jul-17 05:22N 24°29' E 118°04'0 0.0
2017-Jul-17 04:52N 24°29' E 118°04'0 0.0
2017-Jul-17 04:28N 24°29' E 118°04'0 0.0
2017-Jul-17 03:46N 24°29' E 118°04'0 0.0
2017-Jul-17 03:22N 24°29' E 118°04'0 0.0
2017-Jul-17 02:55N 24°29' E 118°04'0 0.0
2017-Jul-17 02:28N 24°29' E 118°04'0 0.0
2017-Jul-17 01:58N 24°29' E 118°04'0 0.0
2017-Jul-17 01:16N 24°29' E 118°04'0 0.0
2017-Jul-17 00:52N 24°29' E 118°04'0 0.0
2017-Jul-17 00:22N 24°29' E 118°04'0 0.0
2017-Jul-16 23:52N 24°29' E 118°04'0 0.0
2017-Jul-16 23:20N 24°29' E 118°04'1 3.4
2017-Jul-16 23:00N 24°28' E 118°03'510.1
2017-Jul-16 22:30N 24°24' E 118°06'4 8.9
2017-Jul-16 22:00N 24°21' E 118°10'4 8.2
2017-Jul-16 21:30N 24°18' E 118°13'510.6
2017-Jul-16 21:00N 24°15' E 118°17'815.7
2017-Jul-16 20:28N 24°14' E 118°26'715.3
2017-Jul-16 20:00N 24°15' E 118°34'1317.6
2017-Jul-16 19:16N 24°18' E 118°48'816.9
2017-Jul-16 18:47N 24°21' E 118°57'516.6
2017-Jul-16 18:29N 24°23' E 119°01'816.8
2017-Jul-16 18:00N 24°26' E 119°09'  
2017-Jul-12 20:10N 24°41' E 119°39'618.8
2017-Jul-12 19:51N 24°38' E 119°33'2118.3
2017-Jul-12 18:42N 24°28' E 119°13'418.4
2017-Jul-12 18:29N 24°26' E 119°09'918.3
2017-Jul-12 18:01N 24°22' E 119°00'917.7
2017-Jul-12 17:31N 24°20' E 118°51'917.8
2017-Jul-12 17:01N 24°17' E 118°41'917.9
2017-Jul-12 16:31N 24°15' E 118°32'917.8
2017-Jul-12 16:00N 24°14' E 118°22'714.1
2017-Jul-12 15:30N 24°16' E 118°15'713.5
2017-Jul-12 15:01N 24°21' E 118°10'1010.3
2017-Jul-12 14:01N 24°29' E 118°04'0 0.3
2017-Jul-12 13:20N 24°29' E 118°04'0 0.0
2017-Jul-12 12:44N 24°29' E 118°04'0 0.0
2017-Jul-12 12:26N 24°29' E 118°04'0 0.0
2017-Jul-12 11:56N 24°29' E 118°04'0 0.0
2017-Jul-12 11:20N 24°29' E 118°04'0 0.0
2017-Jul-12 10:56N 24°29' E 118°04'0 0.0
2017-Jul-12 10:26N 24°29' E 118°04'0 0.0
2017-Jul-12 09:56N 24°29' E 118°04'0 0.0
2017-Jul-12 09:02N 24°29' E 118°04'0 0.1
2017-Jul-12 08:56N 24°29' E 118°04'0 0.0
2017-Jul-12 08:26N 24°29' E 118°04'0 0.0
2017-Jul-12 07:56N 24°29' E 118°04'0 0.0
2017-Jul-12 07:20N 24°29' E 118°04'0 0.0
2017-Jul-12 06:56N 24°29' E 118°04'0 0.0
2017-Jul-12 06:26N 24°29' E 118°04'0 0.6
2017-Jul-12 05:59N 24°29' E 118°04'4 8.6
2017-Jul-12 05:30N 24°25' E 118°05'510.2
2017-Jul-12 05:01N 24°22' E 118°09'815.0
2017-Jul-12 04:30N 24°16' E 118°14'815.2
2017-Jul-12 04:00N 24°11' E 118°21'918.3
2017-Jul-12 03:30N 24°02' E 118°24'1118.9
2017-Jul-12 02:54N 23°52' E 118°29'  
Track history (hours):
 
Tides and Currents Weather Stations Pressure Air Temp Water Temp Dewpoint Dewpoint Depression Visibility Wind Speed Wind Dir Waves Ship Positions

Celebrity Century

Last reported at 2017-Jul-21 16:14 UTC. Time now 2017-Jul-22 16:56 UTC.
Position N 31°15' E 123°13'.

Length 252 m; draft 8 m.

Type: Passenger vessel. MMSI: 249054000.

Date/timePositionNaut miles runAvg speedWind from/ knotsBaromVisibWave heightAir tempDewpointWater temp
2017-Jul-21 16:14N 31°15' E 123°13'312.9
2017-Jul-21 15:59N 31°14' E 123°10'712.9
2017-Jul-21 15:28N 31°11' E 123°02'613.0
2017-Jul-21 15:00N 31°08' E 122°56'713.0
2017-Jul-21 14:30N 31°07' E 122°49'713.2
2017-Jul-21 14:00N 31°06' E 122°41'611.7
2017-Jul-21 13:31N 31°06' E 122°34'612.0
2017-Jul-21 13:01N 31°06' E 122°27'5 9.7
2017-Jul-21 12:30N 31°06' E 122°22'4 8.6
2017-Jul-21 12:00N 31°07' E 122°17'4 7.9
2017-Jul-21 11:30N 31°09' E 122°13'4 8.3
2017-Jul-21 11:00N 31°12' E 122°09'611.5
2017-Jul-21 10:30N 31°14' E 122°03'713.6
2017-Jul-21 10:01N 31°15' E 121°55'714.5
2017-Jul-21 09:30N 31°18' E 121°47'612.5
2017-Jul-21 09:00N 31°20' E 121°41'611.9
2017-Jul-21 08:30N 31°23' E 121°35'4 7.7
2017-Jul-21 08:01N 31°25' E 121°30'0 0.0
2017-Jul-21 07:28N 31°25' E 121°30'0 0.0
2017-Jul-21 06:58N 31°25' E 121°30'0 0.0
2017-Jul-21 06:31N 31°25' E 121°30'0 0.0
2017-Jul-21 05:58N 31°25' E 121°30'0 0.0
2017-Jul-21 05:31N 31°25' E 121°30'0 0.0
2017-Jul-21 05:01N 31°25' E 121°30'0 0.0
2017-Jul-21 04:31N 31°25' E 121°30'0 0.0
2017-Jul-21 03:58N 31°25' E 121°30'0 0.0
2017-Jul-21 03:31N 31°25' E 121°30'0 0.0
2017-Jul-21 03:00N 31°25' E 121°30'0 0.0
2017-Jul-21 02:31N 31°25' E 121°30'0 0.0
2017-Jul-21 01:58N 31°25' E 121°30'0 0.0
2017-Jul-21 01:31N 31°25' E 121°30'0 0.0
2017-Jul-21 01:01N 31°25' E 121°30'0 0.0
2017-Jul-21 00:31N 31°25' E 121°30'0 0.0
2017-Jul-21 00:01N 31°25' E 121°30'0 0.0
2017-Jul-20 23:28N 31°25' E 121°30'0 0.0
2017-Jul-20 23:01N 31°25' E 121°30'0 0.0
2017-Jul-20 22:28N 31°25' E 121°30'0 0.0
2017-Jul-20 22:01N 31°25' E 121°30'0 0.0
2017-Jul-20 21:31N 31°25' E 121°30'0 0.0
2017-Jul-20 20:55N 31°25' E 121°30'0 0.0
2017-Jul-20 20:31N 31°25' E 121°30'0 0.0
2017-Jul-20 20:01N 31°25' E 121°30'1 2.5
2017-Jul-20 19:30N 31°24' E 121°32'510.6
2017-Jul-20 19:01N 31°22' E 121°37'611.0
2017-Jul-20 18:30N 31°19' E 121°43'4 8.9
2017-Jul-20 18:00N 31°18' E 121°48'4 7.5
2017-Jul-20 17:31N 31°16' E 121°52'4 7.5
2017-Jul-20 17:01N 31°15' E 121°56'4 8.6
2017-Jul-20 16:31N 31°15' E 122°01'4 8.4
2017-Jul-20 16:01N 31°14' E 122°06'612.2
2017-Jul-20 15:30N 31°10' E 122°12'612.9
2017-Jul-20 15:01N 31°07' E 122°18'1111.2
2017-Jul-20 14:00N 31°08' E 122°31'714.0
2017-Jul-20 13:31N 31°07' E 122°39'917.7
2017-Jul-20 13:00N 31°07' E 122°49'918.9
2017-Jul-20 12:30N 31°07' E 123°00'1019.2
2017-Jul-20 12:00N 31°04' E 123°11'1019.6
2017-Jul-20 11:29N 30°58' E 123°21'919.6
2017-Jul-20 11:00N 30°51' E 123°28'1019.7
2017-Jul-20 10:30N 30°44' E 123°36'1019.6
2017-Jul-20 10:00N 30°36' E 123°43'1019.0
2017-Jul-20 09:30N 30°28' E 123°50'918.6
2017-Jul-20 09:00N 30°21' E 123°57'918.3
2017-Jul-20 08:30N 30°14' E 124°04'918.3
2017-Jul-20 07:59N 30°07' E 124°11'918.4
2017-Jul-20 07:30N 30°01' E 124°17'918.2
2017-Jul-20 07:00N 29°54' E 124°24'  
2017-Jul-17 11:07N 24°15' E 118°32'617.6
2017-Jul-17 10:46N 24°14' E 118°25'416.3
2017-Jul-17 10:31N 24°13' E 118°21'612.8
2017-Jul-17 10:00N 24°16' E 118°14'714.1
2017-Jul-17 09:30N 24°21' E 118°09'510.9
2017-Jul-17 09:00N 24°25' E 118°05'4 8.4
2017-Jul-17 08:30N 24°29' E 118°04'1 0.5
2017-Jul-17 07:28N 24°29' E 118°04'0 0.0
2017-Jul-17 06:58N 24°29' E 118°04'0 0.0
2017-Jul-17 06:28N 24°29' E 118°04'0 0.0
2017-Jul-17 05:58N 24°29' E 118°04'0 0.0
2017-Jul-17 05:22N 24°29' E 118°04'0 0.0
2017-Jul-17 04:52N 24°29' E 118°04'0 0.0
2017-Jul-17 04:28N 24°29' E 118°04'0 0.0
2017-Jul-17 03:46N 24°29' E 118°04'0 0.0
2017-Jul-17 03:22N 24°29' E 118°04'0 0.0
2017-Jul-17 02:55N 24°29' E 118°04'0 0.0
2017-Jul-17 02:28N 24°29' E 118°04'0 0.0
2017-Jul-17 01:58N 24°29' E 118°04'0 0.0
2017-Jul-17 01:16N 24°29' E 118°04'0 0.0
2017-Jul-17 00:52N 24°29' E 118°04'0 0.0
2017-Jul-17 00:22N 24°29' E 118°04'0 0.0
2017-Jul-16 23:52N 24°29' E 118°04'0 0.0
2017-Jul-16 23:20N 24°29' E 118°04'1 3.4
2017-Jul-16 23:00N 24°28' E 118°03'510.1
2017-Jul-16 22:30N 24°24' E 118°06'4 8.9
2017-Jul-16 22:00N 24°21' E 118°10'4 8.2
2017-Jul-16 21:30N 24°18' E 118°13'510.6
2017-Jul-16 21:00N 24°15' E 118°17'815.7
2017-Jul-16 20:28N 24°14' E 118°26'715.3
2017-Jul-16 20:00N 24°15' E 118°34'1317.6
2017-Jul-16 19:16N 24°18' E 118°48'816.9
2017-Jul-16 18:47N 24°21' E 118°57'516.6
2017-Jul-16 18:29N 24°23' E 119°01'816.8
2017-Jul-16 18:00N 24°26' E 119°09'  
2017-Jul-12 20:10N 24°41' E 119°39'618.8
2017-Jul-12 19:51N 24°38' E 119°33'2118.3
2017-Jul-12 18:42N 24°28' E 119°13'418.4
2017-Jul-12 18:29N 24°26' E 119°09'918.3
2017-Jul-12 18:01N 24°22' E 119°00'917.7
2017-Jul-12 17:31N 24°20' E 118°51'917.8
2017-Jul-12 17:01N 24°17' E 118°41'917.9
2017-Jul-12 16:31N 24°15' E 118°32'917.8
2017-Jul-12 16:00N 24°14' E 118°22'714.1
2017-Jul-12 15:30N 24°16' E 118°15'713.5
2017-Jul-12 15:01N 24°21' E 118°10'1010.3
2017-Jul-12 14:01N 24°29' E 118°04'0 0.3
2017-Jul-12 13:20N 24°29' E 118°04'0 0.0
2017-Jul-12 12:44N 24°29' E 118°04'0 0.0
2017-Jul-12 12:26N 24°29' E 118°04'0 0.0
2017-Jul-12 11:56N 24°29' E 118°04'0 0.0
2017-Jul-12 11:20N 24°29' E 118°04'0 0.0
2017-Jul-12 10:56N 24°29' E 118°04'0 0.0
2017-Jul-12 10:26N 24°29' E 118°04'0 0.0
2017-Jul-12 09:56N 24°29' E 118°04'0 0.0
2017-Jul-12 09:02N 24°29' E 118°04'0 0.1
2017-Jul-12 08:56N 24°29' E 118°04'0 0.0
2017-Jul-12 08:26N 24°29' E 118°04'0 0.0
2017-Jul-12 07:56N 24°29' E 118°04'0 0.0
2017-Jul-12 07:20N 24°29' E 118°04'0 0.0
2017-Jul-12 06:56N 24°29' E 118°04'0 0.0
2017-Jul-12 06:26N 24°29' E 118°04'0 0.6
2017-Jul-12 05:59N 24°29' E 118°04'4 8.6
2017-Jul-12 05:30N 24°25' E 118°05'510.2
2017-Jul-12 05:01N 24°22' E 118°09'815.0
2017-Jul-12 04:30N 24°16' E 118°14'815.2
2017-Jul-12 04:00N 24°11' E 118°21'918.3
2017-Jul-12 03:30N 24°02' E 118°24'1118.9
2017-Jul-12 02:54N 23°52' E 118°29'  

Dump ship's entire track history